FNR weather

Funter Bay Seaplane Base
Funter Bay, Alaska, United States

Public forecast

Using degrees Fahrenheit for public forecast. Weather courtesy of forecast.io.

Closest aviation weather report (METAR) to Funter Bay Seaplane Base

Closest report is Juneau International Airport, 11.8 nm (21.9 km) ENE. Retrieved 2020/07/13 16:53 UTC (52 minutes ago):

PAJN 131653Z 11010KT 10SM FEW008 BKN037 OVC055 13/11 A3011

Closest aviation forecast (TAF) to Funter Bay Seaplane Base

Closest forecast is Juneau International Airport, 11.8 nm (21.9 km) ENE. Retrieved 2020/07/13 12:30 UTC (5 hours ago):

TAF PAJN 131129Z 1312/1412 08008KT P6SM VCSH FEW002 BKN035 OVC070 TEMPO 1312/1316 6SM -SHRA BR SCT002 BKN025 OVC035 FM140200 12010KT 6SM -RA SCT025 OVC050 FM140800 10010KT 5SM -RA BR OVC015